sensor_id;sensor_type;location;lat;lon;timestamp;pressure;altitude;pressure_sealevel;temperature;humidity
72359;BME280;60317;48.880;-0.862;2023-03-14T00:01:20;98047.19;;;19.99;46.20
72359;BME280;60317;48.880;-0.862;2023-03-14T00:03:48;98057.09;;;19.99;46.26
72359;BME280;60317;48.880;-0.862;2023-03-14T00:06:15;98055.06;;;20.01;46.30
72359;BME280;60317;48.880;-0.862;2023-03-14T00:08:44;98066.63;;;20.01;46.12
72359;BME280;60317;48.880;-0.862;2023-03-14T00:11:12;98071.16;;;20.01;46.09
72359;BME280;60317;48.880;-0.862;2023-03-14T00:13:40;98060.34;;;19.94;46.26
72359;BME280;60317;48.880;-0.862;2023-03-14T00:16:09;98064.03;;;19.93;46.28
72359;BME280;60317;48.880;-0.862;2023-03-14T00:18:37;98073.75;;;19.94;46.27
72359;BME280;60317;48.880;-0.862;2023-03-14T00:21:06;98073.38;;;19.97;46.30
72359;BME280;60317;48.880;-0.862;2023-03-14T00:23:35;98072.38;;;19.98;46.00
72359;BME280;60317;48.880;-0.862;2023-03-14T00:26:03;98073.38;;;19.97;46.26
72359;BME280;60317;48.880;-0.862;2023-03-14T00:28:30;98074.22;;;19.98;46.25
72359;BME280;60317;48.880;-0.862;2023-03-14T00:30:56;98076.31;;;20.02;46.17
72359;BME280;60317;48.880;-0.862;2023-03-14T00:33:23;98075.66;;;20.00;46.22
72359;BME280;60317;48.880;-0.862;2023-03-14T00:35:54;98092.63;;;20.01;46.18
72359;BME280;60317;48.880;-0.862;2023-03-14T00:38:23;98095.66;;;19.98;46.21
72359;BME280;60317;48.880;-0.862;2023-03-14T00:40:49;98092.91;;;19.91;46.28
72359;BME280;60317;48.880;-0.862;2023-03-14T00:43:16;98104.25;;;19.93;46.23
72359;BME280;60317;48.880;-0.862;2023-03-14T00:45:42;98102.22;;;19.95;46.20
72359;BME280;60317;48.880;-0.862;2023-03-14T00:48:09;98107.59;;;19.95;46.26
72359;BME280;60317;48.880;-0.862;2023-03-14T00:50:36;98107.38;;;19.97;46.28
72359;BME280;60317;48.880;-0.862;2023-03-14T00:53:02;98102.88;;;19.97;46.27
72359;BME280;60317;48.880;-0.862;2023-03-14T00:55:30;98119.78;;;19.98;46.51
72359;BME280;60317;48.880;-0.862;2023-03-14T00:57:56;98125.97;;;19.98;46.21
72359;BME280;60317;48.880;-0.862;2023-03-14T01:00:23;98123.31;;;19.98;46.34
72359;BME280;60317;48.880;-0.862;2023-03-14T01:02:49;98129.50;;;19.99;46.27
72359;BME280;60317;48.880;-0.862;2023-03-14T01:05:16;98135.06;;;19.97;46.35
72359;BME280;60317;48.880;-0.862;2023-03-14T01:07:43;98135.13;;;19.89;46.28
72359;BME280;60317;48.880;-0.862;2023-03-14T01:10:10;98136.25;;;19.95;46.26
72359;BME280;60317;48.880;-0.862;2023-03-14T01:12:38;98134.41;;;19.95;46.43
72359;BME280;60317;48.880;-0.862;2023-03-14T01:15:05;98143.09;;;19.97;46.32
72359;BME280;60317;48.880;-0.862;2023-03-14T01:17:31;98155.84;;;19.95;46.21
72359;BME280;60317;48.880;-0.862;2023-03-14T01:19:59;98152.97;;;19.97;46.37
72359;BME280;60317;48.880;-0.862;2023-03-14T01:22:25;98172.59;;;19.97;46.46
72359;BME280;60317;48.880;-0.862;2023-03-14T01:24:52;98166.19;;;19.98;46.28
72359;BME280;60317;48.880;-0.862;2023-03-14T01:27:18;98179.25;;;20.01;46.24
72359;BME280;60317;48.880;-0.862;2023-03-14T01:29:46;98185.06;;;20.05;46.37
72359;BME280;60317;48.880;-0.862;2023-03-14T01:32:13;98196.06;;;19.95;46.43
72359;BME280;60317;48.880;-0.862;2023-03-14T01:34:39;98213.53;;;19.91;46.51
72359;BME280;60317;48.880;-0.862;2023-03-14T01:37:06;98223.91;;;19.94;46.67
72359;BME280;60317;48.880;-0.862;2023-03-14T01:39:33;98239.41;;;19.99;46.43
72359;BME280;60317;48.880;-0.862;2023-03-14T01:41:59;98246.91;;;20.03;46.21
72359;BME280;60317;48.880;-0.862;2023-03-14T01:44:26;98256.16;;;20.01;46.37
72359;BME280;60317;48.880;-0.862;2023-03-14T01:46:54;98265.97;;;20.09;46.28
72359;BME280;60317;48.880;-0.862;2023-03-14T01:49:25;98289.44;;;20.07;46.33
72359;BME280;60317;48.880;-0.862;2023-03-14T01:51:56;98292.41;;;20.12;46.03
72359;BME280;60317;48.880;-0.862;2023-03-14T01:54:28;98305.47;;;20.15;45.86
72359;BME280;60317;48.880;-0.862;2023-03-14T01:57:01;98328.38;;;20.17;45.87
72359;BME280;60317;48.880;-0.862;2023-03-14T01:59:30;98334.41;;;20.05;46.01
72359;BME280;60317;48.880;-0.862;2023-03-14T02:02:00;98347.03;;;19.96;46.22
72359;BME280;60317;48.880;-0.862;2023-03-14T02:04:28;98349.63;;;20.04;46.21
72359;BME280;60317;48.880;-0.862;2023-03-14T02:07:00;98359.53;;;20.03;46.03
72359;BME280;60317;48.880;-0.862;2023-03-14T02:09:30;98370.25;;;20.03;46.13
72359;BME280;60317;48.880;-0.862;2023-03-14T02:11:57;98381.63;;;20.06;45.90
72359;BME280;60317;48.880;-0.862;2023-03-14T02:14:30;98401.34;;;20.13;45.77
72359;BME280;60317;48.880;-0.862;2023-03-14T02:16:57;98418.81;;;20.09;45.75
72359;BME280;60317;48.880;-0.862;2023-03-14T02:19:35;98415.00;;;20.03;45.80
72359;BME280;60317;48.880;-0.862;2023-03-14T02:22:11;98426.91;;;20.00;45.80
72359;BME280;60317;48.880;-0.862;2023-03-14T02:24:43;98441.53;;;19.98;45.83
72359;BME280;60317;48.880;-0.862;2023-03-14T02:27:15;98436.06;;;19.91;45.97
72359;BME280;60317;48.880;-0.862;2023-03-14T02:29:49;98446.84;;;19.83;46.00
72359;BME280;60317;48.880;-0.862;2023-03-14T02:32:18;98452.97;;;19.92;45.73
72359;BME280;60317;48.880;-0.862;2023-03-14T02:34:48;98475.56;;;19.97;45.64
72359;BME280;60317;48.880;-0.862;2023-03-14T02:37:16;98473.72;;;19.98;45.73
72359;BME280;60317;48.880;-0.862;2023-03-14T02:39:45;98478.25;;;19.97;45.57
72359;BME280;60317;48.880;-0.862;2023-03-14T02:42:13;98484.94;;;19.93;45.75
72359;BME280;60317;48.880;-0.862;2023-03-14T02:44:50;98502.06;;;19.92;45.70
72359;BME280;60317;48.880;-0.862;2023-03-14T02:47:19;98511.75;;;19.93;45.63
72359;BME280;60317;48.880;-0.862;2023-03-14T02:49:46;98507.06;;;19.95;45.53
72359;BME280;60317;48.880;-0.862;2023-03-14T02:52:13;98528.03;;;19.92;45.51
72359;BME280;60317;48.880;-0.862;2023-03-14T02:54:40;98534.41;;;19.91;45.20
72359;BME280;60317;48.880;-0.862;2023-03-14T02:57:06;98534.78;;;19.79;45.50
72359;BME280;60317;48.880;-0.862;2023-03-14T02:59:34;98538.63;;;19.85;45.20
72359;BME280;60317;48.880;-0.862;2023-03-14T03:02:00;98552.34;;;19.90;45.07
72359;BME280;60317;48.880;-0.862;2023-03-14T03:04:27;98557.25;;;19.87;45.04
72359;BME280;60317;48.880;-0.862;2023-03-14T03:06:53;98557.34;;;19.93;45.06
72359;BME280;60317;48.880;-0.862;2023-03-14T03:09:20;98560.75;;;19.87;44.99
72359;BME280;60317;48.880;-0.862;2023-03-14T03:11:46;98570.47;;;19.88;45.02
72359;BME280;60317;48.880;-0.862;2023-03-14T03:14:13;98581.00;;;19.90;44.95
72359;BME280;60317;48.880;-0.862;2023-03-14T03:16:41;98592.59;;;19.82;44.98
72359;BME280;60317;48.880;-0.862;2023-03-14T03:19:07;98609.31;;;19.92;44.62
72359;BME280;60317;48.880;-0.862;2023-03-14T03:21:34;98624.22;;;19.95;44.34
72359;BME280;60317;48.880;-0.862;2023-03-14T03:24:00;98634.75;;;19.96;44.24
72359;BME280;60317;48.880;-0.862;2023-03-14T03:26:27;98642.38;;;20.16;43.62
72359;BME280;60317;48.880;-0.862;2023-03-14T03:28:53;98659.84;;;20.12;43.68
72359;BME280;60317;48.880;-0.862;2023-03-14T03:31:20;98667.66;;;20.21;42.99
72359;BME280;60317;48.880;-0.862;2023-03-14T03:33:48;98679.25;;;20.22;43.14
72359;BME280;60317;48.880;-0.862;2023-03-14T03:36:14;98682.56;;;20.24;43.17
72359;BME280;60317;48.880;-0.862;2023-03-14T03:38:41;98683.75;;;20.21;43.08
72359;BME280;60317;48.880;-0.862;2023-03-14T03:41:07;98695.63;;;20.27;43.09
72359;BME280;60317;48.880;-0.862;2023-03-14T03:43:34;98708.00;;;20.36;42.72
72359;BME280;60317;48.880;-0.862;2023-03-14T03:46:02;98704.59;;;20.42;42.63
72359;BME280;60317;48.880;-0.862;2023-03-14T03:48:29;98710.16;;;20.41;42.68
72359;BME280;60317;48.880;-0.862;2023-03-14T03:50:57;98715.59;;;20.24;42.93
72359;BME280;60317;48.880;-0.862;2023-03-14T03:53:25;98723.94;;;20.38;42.38
72359;BME280;60317;48.880;-0.862;2023-03-14T03:55:59;98737.84;;;20.41;42.25
72359;BME280;60317;48.880;-0.862;2023-03-14T03:58:26;98742.66;;;20.46;42.47
72359;BME280;60317;48.880;-0.862;2023-03-14T04:00:52;98752.78;;;20.36;42.33
72359;BME280;60317;48.880;-0.862;2023-03-14T04:03:19;98762.09;;;20.56;41.87
72359;BME280;60317;48.880;-0.862;2023-03-14T04:05:45;98769.00;;;20.42;42.25
72359;BME280;60317;48.880;-0.862;2023-03-14T04:08:13;98768.66;;;20.45;42.26
72359;BME280;60317;48.880;-0.862;2023-03-14T04:10:40;98775.53;;;20.48;42.13
72359;BME280;60317;48.880;-0.862;2023-03-14T04:13:06;98775.34;;;20.49;42.11
72359;BME280;60317;48.880;-0.862;2023-03-14T04:15:33;98771.34;;;20.45;42.17
72359;BME280;60317;48.880;-0.862;2023-03-14T04:17:59;98789.16;;;20.46;42.05
72359;BME280;60317;48.880;-0.862;2023-03-14T04:20:25;98783.09;;;20.53;42.14
72359;BME280;60317;48.880;-0.862;2023-03-14T04:22:52;98792.59;;;20.63;41.79
72359;BME280;60317;48.880;-0.862;2023-03-14T04:25:20;98797.31;;;20.61;41.65
72359;BME280;60317;48.880;-0.862;2023-03-14T04:27:47;98804.34;;;20.62;41.66
72359;BME280;60317;48.880;-0.862;2023-03-14T04:30:13;98820.63;;;20.69;41.43
72359;BME280;60317;48.880;-0.862;2023-03-14T04:32:40;98817.94;;;20.69;41.52
72359;BME280;60317;48.880;-0.862;2023-03-14T04:35:07;98818.59;;;20.71;41.49
72359;BME280;60317;48.880;-0.862;2023-03-14T04:37:33;98815.72;;;20.72;41.21
72359;BME280;60317;48.880;-0.862;2023-03-14T04:40:00;98823.97;;;20.71;41.19
72359;BME280;60317;48.880;-0.862;2023-03-14T04:42:28;98834.72;;;20.71;41.10
72359;BME280;60317;48.880;-0.862;2023-03-14T04:44:54;98834.72;;;20.71;41.06
72359;BME280;60317;48.880;-0.862;2023-03-14T04:47:21;98850.31;;;20.67;41.50
72359;BME280;60317;48.880;-0.862;2023-03-14T04:49:47;98859.34;;;20.75;41.32
72359;BME280;60317;48.880;-0.862;2023-03-14T04:52:14;98872.06;;;20.81;41.16
72359;BME280;60317;48.880;-0.862;2023-03-14T04:54:40;98879.91;;;20.90;40.88
72359;BME280;60317;48.880;-0.862;2023-03-14T04:57:06;98882.94;;;20.95;40.84
72359;BME280;60317;48.880;-0.862;2023-03-14T04:59:34;98889.28;;;20.94;40.47
72359;BME280;60317;48.880;-0.862;2023-03-14T05:02:01;98889.19;;;20.80;40.82
72359;BME280;60317;48.880;-0.862;2023-03-14T05:04:27;98902.63;;;20.80;40.85
72359;BME280;60317;48.880;-0.862;2023-03-14T05:06:54;98911.66;;;20.87;40.62
72359;BME280;60317;48.880;-0.862;2023-03-14T05:09:21;98906.25;;;20.95;40.50
72359;BME280;60317;48.880;-0.862;2023-03-14T05:11:48;98916.16;;;20.94;40.40
72359;BME280;60317;48.880;-0.862;2023-03-14T05:14:14;98921.03;;;20.99;40.08
72359;BME280;60317;48.880;-0.862;2023-03-14T05:16:42;98923.53;;;21.01;40.48
72359;BME280;60317;48.880;-0.862;2023-03-14T05:19:10;98922.50;;;21.10;40.02
72359;BME280;60317;48.880;-0.862;2023-03-14T05:21:36;98927.75;;;20.87;40.71
72359;BME280;60317;48.880;-0.862;2023-03-14T05:24:03;98936.31;;;20.90;40.31
72359;BME280;60317;48.880;-0.862;2023-03-14T05:26:30;98953.06;;;21.01;40.24
72359;BME280;60317;48.880;-0.862;2023-03-14T05:28:56;98954.38;;;21.05;40.14
72359;BME280;60317;48.880;-0.862;2023-03-14T05:31:23;98975.56;;;21.00;40.20
72359;BME280;60317;48.880;-0.862;2023-03-14T05:33:51;98987.94;;;21.17;39.75
72359;BME280;60317;48.880;-0.862;2023-03-14T05:36:17;98975.84;;;21.13;39.99
72359;BME280;60317;48.880;-0.862;2023-03-14T05:38:43;98972.16;;;21.14;39.69
72359;BME280;60317;48.880;-0.862;2023-03-14T05:41:10;98983.94;;;21.05;39.99
72359;BME280;60317;48.880;-0.862;2023-03-14T05:43:36;98985.31;;;21.01;39.99
72359;BME280;60317;48.880;-0.862;2023-03-14T05:46:03;98990.34;;;21.04;40.11
72359;BME280;60317;48.880;-0.862;2023-03-14T05:48:30;98990.50;;;21.02;39.99
72359;BME280;60317;48.880;-0.862;2023-03-14T05:50:58;99005.13;;;21.00;40.14
72359;BME280;60317;48.880;-0.862;2023-03-14T05:53:25;98994.00;;;21.11;39.64
72359;BME280;60317;48.880;-0.862;2023-03-14T05:55:52;99012.13;;;21.17;39.53
72359;BME280;60317;48.880;-0.862;2023-03-14T05:58:21;99011.25;;;21.16;39.67
72359;BME280;60317;48.880;-0.862;2023-03-14T06:00:47;99013.66;;;20.95;40.12
72359;BME280;60317;48.880;-0.862;2023-03-14T06:03:14;99018.38;;;21.01;39.92
72359;BME280;60317;48.880;-0.862;2023-03-14T06:05:40;99022.41;;;20.97;40.10
72359;BME280;60317;48.880;-0.862;2023-03-14T06:08:08;99021.88;;;21.10;39.75
72359;BME280;60317;48.880;-0.862;2023-03-14T06:10:35;99032.97;;;21.07;40.10
72359;BME280;60317;48.880;-0.862;2023-03-14T06:13:02;99034.97;;;21.05;40.04
72359;BME280;60317;48.880;-0.862;2023-03-14T06:15:28;99039.16;;;21.15;40.02
72359;BME280;60317;48.880;-0.862;2023-03-14T06:17:55;99047.88;;;21.09;40.02
72359;BME280;60317;48.880;-0.862;2023-03-14T06:20:22;99058.00;;;20.99;40.19
72359;BME280;60317;48.880;-0.862;2023-03-14T06:22:48;99063.16;;;21.09;39.89
72359;BME280;60317;48.880;-0.862;2023-03-14T06:25:16;99069.88;;;21.13;39.75
72359;BME280;60317;48.880;-0.862;2023-03-14T06:27:43;99073.38;;;21.21;39.79
72359;BME280;60317;48.880;-0.862;2023-03-14T06:30:11;99080.28;;;21.24;39.70
72359;BME280;60317;48.880;-0.862;2023-03-14T06:32:38;99086.47;;;21.33;39.39
72359;BME280;60317;48.880;-0.862;2023-03-14T06:35:05;99095.19;;;21.27;39.55
72359;BME280;60317;48.880;-0.862;2023-03-14T06:37:32;99117.72;;;21.26;39.46
72359;BME280;60317;48.880;-0.862;2023-03-14T06:39:58;99114.88;;;21.19;39.65
72359;BME280;60317;48.880;-0.862;2023-03-14T06:42:26;99125.81;;;21.01;39.82
72359;BME280;60317;48.880;-0.862;2023-03-14T06:44:52;99136.69;;;21.16;39.76
72359;BME280;60317;48.880;-0.862;2023-03-14T06:47:19;99136.72;;;21.24;39.23
72359;BME280;60317;48.880;-0.862;2023-03-14T06:49:45;99135.69;;;21.25;39.37
72359;BME280;60317;48.880;-0.862;2023-03-14T06:52:12;99144.59;;;21.17;39.45
72359;BME280;60317;48.880;-0.862;2023-03-14T06:54:39;99152.34;;;21.20;39.50
72359;BME280;60317;48.880;-0.862;2023-03-14T06:57:05;99153.16;;;21.21;39.47
72359;BME280;60317;48.880;-0.862;2023-03-14T06:59:33;99156.72;;;21.13;39.61
72359;BME280;60317;48.880;-0.862;2023-03-14T07:02:00;99168.28;;;21.06;39.80
72359;BME280;60317;48.880;-0.862;2023-03-14T07:04:26;99183.75;;;21.20;39.24
72359;BME280;60317;48.880;-0.862;2023-03-14T07:06:54;99188.59;;;21.25;39.17
72359;BME280;60317;48.880;-0.862;2023-03-14T07:09:20;99191.63;;;21.21;39.57
72359;BME280;60317;48.880;-0.862;2023-03-14T07:11:47;99196.13;;;21.29;39.38
72359;BME280;60317;48.880;-0.862;2023-03-14T07:14:14;99200.69;;;21.29;39.76
72359;BME280;60317;48.880;-0.862;2023-03-14T07:16:42;99209.25;;;21.32;39.77
72359;BME280;60317;48.880;-0.862;2023-03-14T07:19:09;99212.66;;;21.34;40.05
72359;BME280;60317;48.880;-0.862;2023-03-14T07:21:35;99221.50;;;21.27;39.86
72359;BME280;60317;48.880;-0.862;2023-03-14T07:24:02;99226.09;;;21.34;39.98
72359;BME280;60317;48.880;-0.862;2023-03-14T07:26:29;99261.34;;;21.56;39.61
72359;BME280;60317;48.880;-0.862;2023-03-14T07:28:55;99261.81;;;21.67;39.21
72359;BME280;60317;48.880;-0.862;2023-03-14T07:31:22;99266.03;;;21.62;39.46
72359;BME280;60317;48.880;-0.862;2023-03-14T07:33:50;99274.94;;;21.71;39.15
72359;BME280;60317;48.880;-0.862;2023-03-14T07:36:17;99264.34;;;21.77;39.22
72359;BME280;60317;48.880;-0.862;2023-03-14T07:38:43;99257.25;;;21.84;38.96
72359;BME280;60317;48.880;-0.862;2023-03-14T07:41:10;99265.69;;;21.73;39.17
72359;BME280;60317;48.880;-0.862;2023-03-14T07:43:36;99271.25;;;21.63;39.44
72359;BME280;60317;48.880;-0.862;2023-03-14T07:46:03;99274.13;;;21.46;39.66
72359;BME280;60317;48.880;-0.862;2023-03-14T07:48:29;99280.81;;;21.58;39.55
72359;BME280;60317;48.880;-0.862;2023-03-14T07:50:57;99286.03;;;21.67;39.79
72359;BME280;60317;48.880;-0.862;2023-03-14T07:53:24;99291.59;;;21.50;38.01
72359;BME280;60317;48.880;-0.862;2023-03-14T07:55:51;99297.25;;;21.30;38.47
72359;BME280;60317;48.880;-0.862;2023-03-14T07:58:19;99310.00;;;21.04;37.44
72359;BME280;60317;48.880;-0.862;2023-03-14T08:00:45;99300.66;;;20.73;38.23
72359;BME280;60317;48.880;-0.862;2023-03-14T08:03:12;99311.22;;;20.67;38.02
72359;BME280;60317;48.880;-0.862;2023-03-14T08:05:38;99316.53;;;20.51;38.21
72359;BME280;60317;48.880;-0.862;2023-03-14T08:08:08;99323.84;;;20.40;38.26
72359;BME280;60317;48.880;-0.862;2023-03-14T08:10:34;99322.75;;;20.51;38.12
72359;BME280;60317;48.880;-0.862;2023-03-14T08:13:01;99313.88;;;20.59;38.54
72359;BME280;60317;48.880;-0.862;2023-03-14T08:15:29;99330.75;;;20.43;37.90
72359;BME280;60317;48.880;-0.862;2023-03-14T08:17:56;99328.81;;;20.27;38.41
72359;BME280;60317;48.880;-0.862;2023-03-14T08:20:25;99328.84;;;20.35;39.48
72359;BME280;60317;48.880;-0.862;2023-03-14T08:22:55;99335.59;;;20.39;39.48
72359;BME280;60317;48.880;-0.862;2023-03-14T08:25:23;99336.56;;;20.38;39.78
72359;BME280;60317;48.880;-0.862;2023-03-14T08:27:50;99347.59;;;20.27;39.39
72359;BME280;60317;48.880;-0.862;2023-03-14T08:30:18;99349.06;;;20.21;39.36
72359;BME280;60317;48.880;-0.862;2023-03-14T08:32:46;99351.06;;;20.19;39.29
72359;BME280;60317;48.880;-0.862;2023-03-14T08:35:13;99346.50;;;20.12;39.17
72359;BME280;60317;48.880;-0.862;2023-03-14T08:37:39;99360.88;;;20.11;39.19
72359;BME280;60317;48.880;-0.862;2023-03-14T08:40:07;99360.06;;;20.10;39.14
72359;BME280;60317;48.880;-0.862;2023-03-14T08:42:35;99376.69;;;20.14;39.25
72359;BME280;60317;48.880;-0.862;2023-03-14T08:45:03;99372.94;;;20.07;39.40
72359;BME280;60317;48.880;-0.862;2023-03-14T08:47:29;99391.34;;;20.01;39.29
72359;BME280;60317;48.880;-0.862;2023-03-14T08:49:56;99380.78;;;20.00;39.23
72359;BME280;60317;48.880;-0.862;2023-03-14T08:52:22;99392.72;;;20.06;39.14
72359;BME280;60317;48.880;-0.862;2023-03-14T08:54:49;99397.88;;;19.99;39.19
72359;BME280;60317;48.880;-0.862;2023-03-14T08:57:17;99403.84;;;19.93;39.42
72359;BME280;60317;48.880;-0.862;2023-03-14T08:59:45;99410.53;;;19.89;39.24
72359;BME280;60317;48.880;-0.862;2023-03-14T09:02:11;99415.34;;;19.85;39.07
72359;BME280;60317;48.880;-0.862;2023-03-14T09:04:39;99422.72;;;20.01;38.94
72359;BME280;60317;48.880;-0.862;2023-03-14T09:07:05;99418.50;;;19.98;38.96
72359;BME280;60317;48.880;-0.862;2023-03-14T09:09:32;99428.38;;;19.98;38.91
72359;BME280;60317;48.880;-0.862;2023-03-14T09:11:58;99426.47;;;19.90;39.05
72359;BME280;60317;48.880;-0.862;2023-03-14T09:14:25;99428.94;;;19.84;39.06
72359;BME280;60317;48.880;-0.862;2023-03-14T09:16:53;99436.44;;;19.80;39.01
72359;BME280;60317;48.880;-0.862;2023-03-14T09:19:20;99442.56;;;19.90;39.69
72359;BME280;60317;48.880;-0.862;2023-03-14T09:21:46;99439.50;;;19.85;39.83
72359;BME280;60317;48.880;-0.862;2023-03-14T09:24:13;99454.50;;;19.78;39.65
72359;BME280;60317;48.880;-0.862;2023-03-14T09:26:39;99461.31;;;19.72;39.64
72359;BME280;60317;48.880;-0.862;2023-03-14T09:29:06;99459.50;;;19.73;39.39
72359;BME280;60317;48.880;-0.862;2023-03-14T09:31:32;99466.31;;;19.67;39.04
72359;BME280;60317;48.880;-0.862;2023-03-14T09:34:01;99476.72;;;19.70;39.45
72359;BME280;60317;48.880;-0.862;2023-03-14T09:36:28;99463.44;;;19.69;38.92
72359;BME280;60317;48.880;-0.862;2023-03-14T09:38:55;99471.97;;;19.82;39.01
72359;BME280;60317;48.880;-0.862;2023-03-14T09:41:25;99477.56;;;19.89;38.83
72359;BME280;60317;48.880;-0.862;2023-03-14T09:43:58;99471.19;;;19.72;39.20
72359;BME280;60317;48.880;-0.862;2023-03-14T09:46:27;99469.28;;;19.64;39.38
72359;BME280;60317;48.880;-0.862;2023-03-14T09:48:55;99492.50;;;19.73;39.24
72359;BME280;60317;48.880;-0.862;2023-03-14T09:51:22;99495.03;;;19.93;39.11
72359;BME280;60317;48.880;-0.862;2023-03-14T09:53:50;99493.94;;;19.86;39.20
72359;BME280;60317;48.880;-0.862;2023-03-14T09:56:19;99499.00;;;19.71;39.80
72359;BME280;60317;48.880;-0.862;2023-03-14T09:58:49;99506.53;;;19.85;39.65
72359;BME280;60317;48.880;-0.862;2023-03-14T10:01:20;99497.56;;;19.76;39.95
72359;BME280;60317;48.880;-0.862;2023-03-14T10:03:50;99493.47;;;19.72;40.17
72359;BME280;60317;48.880;-0.862;2023-03-14T10:06:20;99498.25;;;19.78;40.16
72359;BME280;60317;48.880;-0.862;2023-03-14T10:08:50;99503.47;;;19.80;40.29
72359;BME280;60317;48.880;-0.862;2023-03-14T10:11:17;99534.59;;;20.09;40.22
72359;BME280;60317;48.880;-0.862;2023-03-14T10:13:49;99510.34;;;20.36;39.86
72359;BME280;60317;48.880;-0.862;2023-03-14T10:16:16;99508.03;;;20.41;39.92
72359;BME280;60317;48.880;-0.862;2023-03-14T10:18:45;99516.91;;;20.60;39.62
72359;BME280;60317;48.880;-0.862;2023-03-14T10:21:21;99525.91;;;20.77;39.22
72359;BME280;60317;48.880;-0.862;2023-03-14T10:23:52;99531.19;;;20.86;38.94
72359;BME280;60317;48.880;-0.862;2023-03-14T10:26:23;99535.22;;;20.90;39.23
72359;BME280;60317;48.880;-0.862;2023-03-14T10:28:52;99539.44;;;20.93;39.49
72359;BME280;60317;48.880;-0.862;2023-03-14T10:31:24;99536.66;;;21.03;39.34
72359;BME280;60317;48.880;-0.862;2023-03-14T10:33:58;99528.78;;;21.09;38.73
72359;BME280;60317;48.880;-0.862;2023-03-14T10:36:27;99530.81;;;21.07;39.14
72359;BME280;60317;48.880;-0.862;2023-03-14T10:39:14;99541.75;;;21.14;39.56
72359;BME280;60317;48.880;-0.862;2023-03-14T10:41:47;99548.69;;;21.25;39.47
72359;BME280;60317;48.880;-0.862;2023-03-14T10:44:16;99566.69;;;21.32;38.88
72359;BME280;60317;48.880;-0.862;2023-03-14T10:46:46;99556.97;;;21.31;39.19
72359;BME280;60317;48.880;-0.862;2023-03-14T10:49:26;99557.28;;;21.28;39.17
72359;BME280;60317;48.880;-0.862;2023-03-14T10:51:53;99558.34;;;21.35;39.14
72359;BME280;60317;48.880;-0.862;2023-03-14T10:54:22;99568.94;;;21.37;38.97
72359;BME280;60317;48.880;-0.862;2023-03-14T10:56:57;99603.03;;;21.36;38.98
72359;BME280;60317;48.880;-0.862;2023-03-14T10:59:24;99591.25;;;21.37;39.06
72359;BME280;60317;48.880;-0.862;2023-03-14T11:01:55;99593.88;;;21.29;39.29
72359;BME280;60317;48.880;-0.862;2023-03-14T11:04:39;99593.88;;;21.29;39.21
72359;BME280;60317;48.880;-0.862;2023-03-14T11:07:13;99602.66;;;21.31;39.02
72359;BME280;60317;48.880;-0.862;2023-03-14T11:09:46;99603.31;;;21.33;38.95
72359;BME280;60317;48.880;-0.862;2023-03-14T11:12:29;99617.31;;;21.37;39.24
72359;BME280;60317;48.880;-0.862;2023-03-14T11:15:02;99599.69;;;21.34;39.13
72359;BME280;60317;48.880;-0.862;2023-03-14T11:17:38;99601.88;;;21.39;39.09
72359;BME280;60317;48.880;-0.862;2023-03-14T11:20:24;99599.00;;;21.40;38.90
72359;BME280;60317;48.880;-0.862;2023-03-14T11:22:59;99607.41;;;21.37;39.12
72359;BME280;60317;48.880;-0.862;2023-03-14T11:25:33;99607.41;;;21.37;39.04
72359;BME280;60317;48.880;-0.862;2023-03-14T11:28:09;99617.16;;;21.38;39.10
72359;BME280;60317;48.880;-0.862;2023-03-14T11:30:45;99606.63;;;21.45;38.81
72359;BME280;60317;48.880;-0.862;2023-03-14T11:33:18;99613.03;;;21.52;38.67
72359;BME280;60317;48.880;-0.862;2023-03-14T11:35:53;99607.47;;;21.54;38.87
72359;BME280;60317;48.880;-0.862;2023-03-14T11:38:29;99612.53;;;21.57;38.30
72359;BME280;60317;48.880;-0.862;2023-03-14T11:40:58;99615.03;;;21.50;37.98
72359;BME280;60317;48.880;-0.862;2023-03-14T11:43:29;99609.50;;;21.52;38.33
72359;BME280;60317;48.880;-0.862;2023-03-14T11:46:01;99626.50;;;21.60;38.26
72359;BME280;60317;48.880;-0.862;2023-03-14T11:48:35;99630.41;;;21.66;38.44
72359;BME280;60317;48.880;-0.862;2023-03-14T11:51:07;99660.44;;;21.61;38.60
72359;BME280;60317;48.880;-0.862;2023-03-14T11:53:45;99703.69;;;21.68;38.35
72359;BME280;60317;48.880;-0.862;2023-03-14T11:56:19;99683.19;;;21.67;38.50
72359;BME280;60317;48.880;-0.862;2023-03-14T11:58:55;99676.03;;;21.50;38.16
72359;BME280;60317;48.880;-0.862;2023-03-14T12:01:28;99679.53;;;21.24;38.50
72359;BME280;60317;48.880;-0.862;2023-03-14T12:04:04;99681.94;;;21.09;39.03
72359;BME280;60317;48.880;-0.862;2023-03-14T12:06:37;99678.72;;;21.06;39.13
72359;BME280;60317;48.880;-0.862;2023-03-14T12:09:08;99679.34;;;21.00;39.15
72359;BME280;60317;48.880;-0.862;2023-03-14T12:11:41;99677.81;;;20.97;39.26
72359;BME280;60317;48.880;-0.862;2023-03-14T12:14:20;99688.34;;;20.90;39.10
72359;BME280;60317;48.880;-0.862;2023-03-14T12:16:48;99679.56;;;20.88;39.39
72359;BME280;60317;48.880;-0.862;2023-03-14T12:19:26;99691.94;;;20.81;39.14
72359;BME280;60317;48.880;-0.862;2023-03-14T12:21:58;99705.38;;;20.81;39.36
72359;BME280;60317;48.880;-0.862;2023-03-14T12:24:29;99704.09;;;20.85;39.05
72359;BME280;60317;48.880;-0.862;2023-03-14T12:27:01;99705.38;;;20.99;39.05
72359;BME280;60317;48.880;-0.862;2023-03-14T12:29:28;99707.34;;;21.15;38.77
72359;BME280;60317;48.880;-0.862;2023-03-14T12:32:07;99698.28;;;21.16;38.63
72359;BME280;60317;48.880;-0.862;2023-03-14T12:34:34;99701.38;;;21.03;39.03
72359;BME280;60317;48.880;-0.862;2023-03-14T12:37:16;99703.66;;;20.98;39.42
72359;BME280;60317;48.880;-0.862;2023-03-14T12:39:49;99711.66;;;20.90;39.28
72359;BME280;60317;48.880;-0.862;2023-03-14T12:42:37;99706.22;;;20.82;39.53
72359;BME280;60317;48.880;-0.862;2023-03-14T12:45:23;99711.50;;;20.73;39.89
72359;BME280;60317;48.880;-0.862;2023-03-14T12:47:55;99718.13;;;20.79;39.47
72359;BME280;60317;48.880;-0.862;2023-03-14T12:50:30;99722.66;;;20.79;39.74
72359;BME280;60317;48.880;-0.862;2023-03-14T12:55:58;99737.59;;;20.81;40.10
72359;BME280;60317;48.880;-0.862;2023-03-14T12:58:32;99743.50;;;20.85;40.26
72359;BME280;60317;48.880;-0.862;2023-03-14T13:01:02;99755.72;;;20.79;40.07